This is the latest recevied weather packets stored in our database for station/object WJ4X-13. If no packets are shown the sender has not sent any weather packets the latest 10 day(s).
| Time | Temp. | Humidity | Pressure | Rain* | Wind** | Luminosity | Snow |
|---|---|---|---|---|---|---|---|
| 1777713349 | 13.33° C | 98% | 1013.2 hPa | 0.51 mm | - | - | - |
| 1777709748 | 13.33° C | 97% | 1013.6 hPa | 0.51 mm | - | - | - |
| 1777707946 | 13.33° C | 97% | 1013.5 hPa | 0 mm | - | - | - |
| 1777702541 | 13.33° C | 97% | 1013 hPa | 0 mm | - | - | - |
| 1777696230 | 13.89° C | 96% | 1013.9 hPa | 0 mm | - | - | - |
| 1777694428 | 13.89° C | 95% | 1014.2 hPa | 0 mm | - | - | - |
| 1777693536 | 13.89° C | 95% | 1014.3 hPa | 0 mm | - | - | - |
| 1777692626 | 13.89° C | 95% | 1014.3 hPa | 0 mm | - | - | - |
| 1777687222 | 14.44° C | 92% | 1014.2 hPa | 0 mm | - | - | - |
| 1777684520 | 15° C | 91% | 1014.3 hPa | 0 mm | - | - | - |
| 1777681818 | 15.56° C | 87% | 1013.3 hPa | 0 mm | - | - | - |
| 1777677318 | 17.22° C | 79% | 1012.6 hPa | 0 mm | - | - | - |
| 1777675508 | 17.78° C | 78% | 1012.8 hPa | 0 mm | - | - | - |
| 1777674608 | 18.33° C | 76% | 1013.1 hPa | 0 mm | - | - | - |
| 1777671000 | 18.89° C | 70% | 1013.5 hPa | 0 mm | - | - | - |
| 1777670160 | 18.89° C | 68% | 1013.5 hPa | 0 mm | - | - | - |
| 1777669260 | 18.33° C | 66% | 1013.6 hPa | 0 mm | - | - | - |
| 1777660252 | 17.78° C | 65% | 1015.5 hPa | 0 mm | - | - | - |
| 1777658448 | 17.22° C | 66% | 1015.7 hPa | 0 mm | - | - | - |
| 1777651241 | 15.56° C | 63% | 1016.4 hPa | 0 mm | - | - | - |
| 1777648542 | 15° C | 68% | 1016.4 hPa | 0 mm | - | - | - |
| 1777646737 | 13.89° C | 68% | 1016.5 hPa | 0 mm | - | - | - |
| 1777644033 | 13.33° C | 69% | 1016.2 hPa | 0 mm | - | - | - |
| 1777641332 | 13.33° C | 69% | 1015.9 hPa | 0 mm | - | - | - |
| 1777633224 | 13.89° C | 65% | 1014.4 hPa | 0 mm | - | - | - |
* Rain latest hour (hover to see other rain measurements)
** Current wind speed in m/s (hover to see current wind gust speed)